createdAt,value
2019-01-05T00:01:48.513Z,6.03
2019-01-05T00:04:35.634Z,5.43
2019-01-05T00:07:22.957Z,3.53
2019-01-05T00:10:10.380Z,5.03
2019-01-05T00:13:01.594Z,4.70
2019-01-05T00:15:50.045Z,5.83
2019-01-05T00:18:38.697Z,5.63
2019-01-05T00:21:26.226Z,4.80
2019-01-05T00:24:23.789Z,5.37
2019-01-05T00:27:30.781Z,3.97
2019-01-05T00:30:19.222Z,5.50
2019-01-05T00:33:07.267Z,5.07
2019-01-05T00:36:08.220Z,6.57
2019-01-05T00:39:03.310Z,3.37
2019-01-05T00:42:00.975Z,4.03
2019-01-05T00:44:48.514Z,2.63
2019-01-05T00:47:35.726Z,3.37
2019-01-05T00:50:24.284Z,4.50
2019-01-05T00:53:16.208Z,2.60
2019-01-05T00:56:04.768Z,3.23
2019-01-05T00:58:52.086Z,3.00
2019-01-05T01:01:39.302Z,3.20
2019-01-05T01:04:26.421Z,2.63
2019-01-05T01:07:17.856Z,5.27
2019-01-05T01:10:04.966Z,3.10
2019-01-05T01:12:52.078Z,2.70
2019-01-05T01:15:40.629Z,3.63
2019-01-05T01:18:28.262Z,2.50
2019-01-05T01:21:19.987Z,2.80
2019-01-05T01:24:20.934Z,3.57
2019-01-05T01:27:03.130Z,2.67
2019-01-05T01:30:04.184Z,3.87
2019-01-05T01:33:01.640Z,2.43
2019-01-05T01:35:56.026Z,2.70
2019-01-05T01:38:49.597Z,2.67
2019-01-05T01:42:03.234Z,3.90
2019-01-05T01:45:03.578Z,3.87
2019-01-05T01:47:57.236Z,4.17
2019-01-05T01:50:57.767Z,3.27
2019-01-05T01:53:52.373Z,2.30
2019-01-05T01:56:59.203Z,2.50
2019-01-05T02:00:08.684Z,2.13
2019-01-05T02:02:57.547Z,2.90
2019-01-05T02:05:46.094Z,2.47
2019-01-05T02:08:44.477Z,2.93
2019-01-05T02:11:40.613Z,2.67
2019-01-05T02:14:23.426Z,2.97
2019-01-05T02:17:21.808Z,2.17
2019-01-05T02:20:36.370Z,3.30
2019-01-05T02:24:21.650Z,2.43
2019-01-05T02:27:38.056Z,2.00
2019-01-05T02:31:19.045Z,2.70
2019-01-05T02:35:05.245Z,2.23
2019-01-05T02:38:38.141Z,2.00
2019-01-05T02:42:15.324Z,1.60
2019-01-05T02:45:48.317Z,1.90
2019-01-05T02:49:28.484Z,2.17
2019-01-05T02:53:20.117Z,2.00
2019-01-05T02:56:30.679Z,2.30
2019-01-05T02:59:59.376Z,3.00
2019-01-05T03:04:01.780Z,2.30
2019-01-05T03:07:54.106Z,2.90
2019-01-05T03:11:15.838Z,1.83
2019-01-05T03:14:30.603Z,2.80
2019-01-05T03:17:51.714Z,2.70
2019-01-05T03:21:16.524Z,3.67
2019-01-05T03:24:56.684Z,2.10
2019-01-05T03:28:20.458Z,3.37
2019-01-05T03:31:46.593Z,3.03
2019-01-05T03:35:09.340Z,1.90
2019-01-05T03:38:52.168Z,2.90
2019-01-05T03:42:26.094Z,2.67
2019-01-05T03:45:44.844Z,2.13
2019-01-05T03:49:16.607Z,2.00
2019-01-05T03:52:37.517Z,2.57
2019-01-05T03:55:53.921Z,2.63
2019-01-05T04:00:02.559Z,4.40
2019-01-05T04:03:27.456Z,2.37
2019-01-05T04:07:13.764Z,2.83
2019-01-05T04:10:40.515Z,2.27
2019-01-05T04:14:14.630Z,1.60
2019-01-05T04:17:56.027Z,2.60
2019-01-05T04:21:18.576Z,1.80
2019-01-05T04:24:41.123Z,2.30
2019-01-05T04:28:10.327Z,4.00
2019-01-05T04:31:47.430Z,2.13
2019-01-05T04:35:14.571Z,2.03
2019-01-05T04:39:00.877Z,2.07
2019-01-05T04:42:47.330Z,2.70
2019-01-05T04:46:00.823Z,2.27
2019-01-05T04:49:51.430Z,2.47
2019-01-05T04:53:37.947Z,2.07
2019-01-05T04:57:17.437Z,2.23
2019-01-05T05:00:40.701Z,1.57
2019-01-05T05:04:18.772Z,2.10
2019-01-05T05:07:54.624Z,2.03
2019-01-05T05:11:41.749Z,2.00
2019-01-05T05:15:12.040Z,1.50
2019-01-05T05:18:21.526Z,1.40
2019-01-05T05:22:00.871Z,1.33
2019-01-05T05:25:25.097Z,1.80
2019-01-05T05:29:06.284Z,2.10
2019-01-05T05:32:59.502Z,1.07
2019-01-05T05:36:38.487Z,1.20
2019-01-05T05:40:13.484Z,1.97
2019-01-05T05:43:54.504Z,1.10
2019-01-05T05:47:12.918Z,1.50
2019-01-05T05:50:39.768Z,1.40
2019-01-05T05:54:03.141Z,1.30
2019-01-05T05:57:34.179Z,0.83
2019-01-05T06:01:08.410Z,0.60
2019-01-05T06:04:43.392Z,0.60
2019-01-05T06:08:20.496Z,1.20
2019-01-05T06:11:57.888Z,0.60
2019-01-05T06:15:45.369Z,0.60
2019-01-05T06:19:19.001Z,1.00
2019-01-05T06:22:42.441Z,1.07
2019-01-05T06:25:58.651Z,0.93
2019-01-05T06:29:30.010Z,1.60
2019-01-05T06:33:03.305Z,1.10
2019-01-05T06:36:24.937Z,0.67
2019-01-05T06:40:04.786Z,1.00
2019-01-05T06:43:32.558Z,1.43
2019-01-05T06:47:03.207Z,0.37
2019-01-05T06:50:31.486Z,0.60
2019-01-05T06:54:21.785Z,0.50
2019-01-05T06:58:04.317Z,0.80
2019-01-05T07:01:36.677Z,0.60
2019-01-05T07:04:38.040Z,0.80
2019-01-05T07:08:20.506Z,0.60
2019-01-05T07:11:51.198Z,0.63
2019-01-05T07:15:29.198Z,0.80
2019-01-05T07:18:51.912Z,1.30
2019-01-05T07:22:09.891Z,1.23
2019-01-05T07:25:40.023Z,1.10
2019-01-05T07:29:02.936Z,0.90
2019-01-05T07:32:36.027Z,0.97
2019-01-05T07:36:20.573Z,1.20
2019-01-05T07:40:00.600Z,0.60
2019-01-05T07:43:42.396Z,0.73
2019-01-05T07:47:12.337Z,1.60
2019-01-05T07:50:23.714Z,0.70
2019-01-05T07:54:11.559Z,0.60
2019-01-05T07:57:35.329Z,0.87
2019-01-05T08:01:01.052Z,1.00
2019-01-05T08:04:44.484Z,0.50
2019-01-05T08:08:40.158Z,0.50
2019-01-05T08:11:51.396Z,0.70
2019-01-05T08:15:32.175Z,0.50
2019-01-05T08:19:13.677Z,0.60
2019-01-05T08:23:00.901Z,0.50
2019-01-05T08:26:44.222Z,0.50
2019-01-05T08:30:19.480Z,0.50
2019-01-05T08:33:43.869Z,0.80
2019-01-05T08:37:30.379Z,0.50
2019-01-05T08:41:23.240Z,0.70
2019-01-05T08:45:02.278Z,0.40
2019-01-05T08:48:33.433Z,0.60
2019-01-05T08:51:53.423Z,0.50
2019-01-05T08:55:37.262Z,0.40
2019-01-05T08:59:16.110Z,0.30
2019-01-05T09:03:18.689Z,0.60
2019-01-05T09:06:55.975Z,0.50
2019-01-05T09:10:40.030Z,0.63
2019-01-05T09:13:54.707Z,0.73
2019-01-05T09:17:22.779Z,1.20
2019-01-05T09:20:50.754Z,0.60
2019-01-05T09:24:15.755Z,0.47
2019-01-05T09:27:39.841Z,0.83
2019-01-05T09:31:19.909Z,0.50
2019-01-05T09:34:38.677Z,0.30
2019-01-05T09:38:15.242Z,0.40
2019-01-05T09:41:58.476Z,0.60
2019-01-05T09:45:29.829Z,0.40
2019-01-05T09:49:09.929Z,0.50
2019-01-05T09:52:43.396Z,0.57
2019-01-05T09:56:08.912Z,0.67
2019-01-05T09:59:18.252Z,0.60
2019-01-05T10:03:11.328Z,0.87
2019-01-05T10:06:34.530Z,0.77
2019-01-05T10:09:59.319Z,0.70
2019-01-05T10:13:26.307Z,0.60
2019-01-05T10:16:53.953Z,0.83
2019-01-05T10:20:17.920Z,0.93
2019-01-05T10:23:54.997Z,0.90
2019-01-05T10:27:07.694Z,0.53
2019-01-05T10:30:32.820Z,0.50
2019-01-05T10:34:06.960Z,0.53
2019-01-05T10:38:05.933Z,0.50
2019-01-05T10:41:26.426Z,0.53
2019-01-05T10:45:25.332Z,0.70
2019-01-05T10:48:49.119Z,0.90
2019-01-05T10:52:13.010Z,0.50
2019-01-05T10:55:43.830Z,0.50
2019-01-05T10:59:02.186Z,0.63
2019-01-05T11:03:05.179Z,0.93
2019-01-05T11:06:19.557Z,0.50
2019-01-05T11:09:57.047Z,0.50
2019-01-05T11:13:16.306Z,1.10
2019-01-05T11:16:59.644Z,1.00
2019-01-05T11:20:36.942Z,0.97
2019-01-05T11:23:48.445Z,1.10
2019-01-05T11:27:45.285Z,0.70
2019-01-05T11:31:31.389Z,1.40
2019-01-05T11:35:05.710Z,1.00
2019-01-05T11:38:41.197Z,1.03
2019-01-05T11:41:53.789Z,0.73
2019-01-05T11:45:42.684Z,0.83
2019-01-05T11:49:14.415Z,0.97
2019-01-05T11:52:47.925Z,0.70
2019-01-05T11:56:15.377Z,1.33
2019-01-05T11:59:45.417Z,1.23
2019-01-05T12:03:01.526Z,0.80
2019-01-05T12:06:32.141Z,1.00
2019-01-05T12:10:12.004Z,0.80
2019-01-05T12:13:39.530Z,0.43
2019-01-05T12:17:03.644Z,1.40
2019-01-05T12:20:40.634Z,1.60
2019-01-05T12:24:28.387Z,1.10
2019-01-05T12:28:06.384Z,1.60
2019-01-05T12:31:48.599Z,1.17
2019-01-05T12:35:40.430Z,0.90
2019-01-05T12:39:31.036Z,2.03
2019-01-05T12:42:58.195Z,1.33
2019-01-05T12:46:26.899Z,1.20
2019-01-05T12:49:52.410Z,1.30
2019-01-05T12:53:28.891Z,0.80
2019-01-05T12:57:06.999Z,1.60
2019-01-05T13:00:39.372Z,1.37
2019-01-05T13:03:52.503Z,1.50
2019-01-05T13:07:08.410Z,1.23
2019-01-05T13:10:39.759Z,1.10
2019-01-05T13:14:11.220Z,1.27
2019-01-05T13:18:03.809Z,1.17
2019-01-05T13:21:44.305Z,0.80
2019-01-05T13:25:12.932Z,0.90
2019-01-05T13:28:47.362Z,0.70
2019-01-05T13:32:33.552Z,0.93
2019-01-05T13:35:53.659Z,0.83
2019-01-05T13:39:24.695Z,0.87
2019-01-05T13:42:57.177Z,1.10
2019-01-05T13:46:31.707Z,1.10
2019-01-05T13:49:50.134Z,0.70
2019-01-05T13:53:18.546Z,0.70
2019-01-05T13:56:26.350Z,1.23
2019-01-05T13:59:07.228Z,0.60
2019-01-05T14:01:56.499Z,1.00
2019-01-05T14:04:48.323Z,1.10
2019-01-05T14:07:36.254Z,0.60
2019-01-05T14:10:24.412Z,0.80
2019-01-05T14:13:10.502Z,0.90
2019-01-05T14:15:57.632Z,1.00
2019-01-05T14:18:44.732Z,0.80
2019-01-05T14:21:33.382Z,1.00
2019-01-05T14:24:20.910Z,1.00
2019-01-05T14:27:15.305Z,1.03
2019-01-05T14:30:03.864Z,1.17
2019-01-05T14:32:58.453Z,0.70
2019-01-05T14:35:49.965Z,0.93
2019-01-05T14:38:44.867Z,0.87
2019-01-05T14:41:39.469Z,0.97
2019-01-05T14:44:28.011Z,0.80
2019-01-05T14:47:16.681Z,0.90
2019-01-05T14:50:05.219Z,0.90
2019-01-05T14:52:53.778Z,0.80
2019-01-05T14:55:54.118Z,0.60
2019-01-05T14:58:41.426Z,0.93
2019-01-05T15:01:38.887Z,0.63
2019-01-05T15:04:26.409Z,0.60
2019-01-05T15:07:24.112Z,0.70
2019-01-05T15:10:28.196Z,0.70
2019-01-05T15:13:22.993Z,0.90
2019-01-05T15:16:11.557Z,0.87
2019-01-05T15:19:12.283Z,0.70
2019-01-05T15:22:03.717Z,0.90
2019-01-05T15:25:04.166Z,0.90
2019-01-05T15:27:47.568Z,0.63
2019-01-05T15:30:35.162Z,0.80
2019-01-05T15:33:22.435Z,0.63
2019-01-05T15:36:10.967Z,0.70
2019-01-05T15:38:58.396Z,1.00
2019-01-05T15:42:02.100Z,1.23
2019-01-05T15:45:02.843Z,1.07
2019-01-05T15:48:00.194Z,1.00
2019-01-05T15:50:57.868Z,0.67
2019-01-05T15:53:46.528Z,0.80
2019-01-05T15:56:33.781Z,1.40
2019-01-05T15:59:40.840Z,0.67
2019-01-05T16:02:45.968Z,0.87
2019-01-05T16:05:44.059Z,0.90
2019-01-05T16:08:31.698Z,0.70
2019-01-05T16:11:26.078Z,1.13
2019-01-05T16:14:32.882Z,1.10
2019-01-05T16:17:24.171Z,1.07
2019-01-05T16:20:28.087Z,1.47
2019-01-05T16:23:26.149Z,0.90
2019-01-05T16:26:13.873Z,1.47
2019-01-05T16:29:02.525Z,1.93
2019-01-05T16:32:00.302Z,1.60
2019-01-05T16:34:58.077Z,0.77
2019-01-05T16:37:45.368Z,1.60
2019-01-05T16:40:32.709Z,1.00
2019-01-05T16:43:21.287Z,1.00
2019-01-05T16:46:13.725Z,1.10
2019-01-05T16:49:00.217Z,1.10
2019-01-05T16:51:51.537Z,0.80
2019-01-05T16:54:33.217Z,1.00
2019-01-05T16:57:20.685Z,1.20
2019-01-05T17:00:07.761Z,0.87
2019-01-05T17:02:54.178Z,1.20
2019-01-05T17:05:55.014Z,1.23
2019-01-05T17:08:43.465Z,1.13
2019-01-05T17:11:37.840Z,1.77
2019-01-05T17:14:25.090Z,1.20
2019-01-05T17:17:19.554Z,1.50
2019-01-05T17:20:06.910Z,1.43
2019-01-05T17:23:10.481Z,1.00
2019-01-05T17:26:01.900Z,0.73
2019-01-05T17:28:53.236Z,0.93
2019-01-05T17:31:44.636Z,1.00
2019-01-05T17:34:35.854Z,0.97
2019-01-05T17:37:39.865Z,1.37
2019-01-05T17:40:28.620Z,1.47
2019-01-05T17:43:21.790Z,0.93
2019-01-05T17:46:13.920Z,0.63
2019-01-05T17:49:07.814Z,1.37
2019-01-05T17:51:51.440Z,1.37
2019-01-05T17:54:45.830Z,1.87
2019-01-05T17:57:33.361Z,1.00
2019-01-05T18:00:20.466Z,0.90
2019-01-05T18:03:20.929Z,1.00
2019-01-05T18:06:15.713Z,0.70
2019-01-05T18:09:03.043Z,0.60
2019-01-05T18:11:50.138Z,1.10
2019-01-05T18:14:50.595Z,1.30
2019-01-05T18:17:38.124Z,1.17
2019-01-05T18:20:34.057Z,1.10
2019-01-05T18:23:30.413Z,1.00
2019-01-05T18:26:31.130Z,1.30
2019-01-05T18:29:22.519Z,0.90
2019-01-05T18:32:20.281Z,0.70
2019-01-05T18:35:11.923Z,1.40
2019-01-05T18:38:12.755Z,0.87
2019-01-05T18:41:01.404Z,0.70
2019-01-05T18:43:49.978Z,1.30
2019-01-05T18:46:36.043Z,1.37
2019-01-05T18:49:18.784Z,1.10
2019-01-05T18:52:25.147Z,1.10
2019-01-05T18:55:22.095Z,1.60
2019-01-05T18:58:13.495Z,0.93
2019-01-05T19:01:00.632Z,1.03
2019-01-05T19:04:01.184Z,1.23
2019-01-05T19:06:48.472Z,1.47
2019-01-05T19:09:36.264Z,1.03
2019-01-05T19:12:30.805Z,0.90
2019-01-05T19:15:19.359Z,1.60
2019-01-05T19:18:06.675Z,1.00
2019-01-05T19:24:07.333Z,0.90
2019-01-05T19:26:48.034Z,1.55
2019-01-05T19:29:39.519Z,1.20
2019-01-05T19:32:27.379Z,1.03
2019-01-05T19:35:15.001Z,0.77
2019-01-05T19:38:02.363Z,1.37
2019-01-05T19:40:50.858Z,1.20
2019-01-05T19:43:45.353Z,0.83
2019-01-05T19:46:33.905Z,1.43
2019-01-05T19:49:22.556Z,0.67
2019-01-05T19:52:29.346Z,0.60
2019-01-05T19:55:26.823Z,1.10
2019-01-05T19:58:33.490Z,0.97
2019-01-05T20:01:21.789Z,0.93
2019-01-05T20:04:24.009Z,1.30
2019-01-05T20:07:24.456Z,1.37
2019-01-05T20:10:18.680Z,0.73
2019-01-05T20:13:07.463Z,1.00
2019-01-05T20:16:14.653Z,0.80
2019-01-05T20:19:21.849Z,1.00
2019-01-05T20:22:09.486Z,1.50
2019-01-05T20:25:03.922Z,1.63
2019-01-05T20:28:04.508Z,1.10
2019-01-05T20:30:47.620Z,1.00
2019-01-05T20:33:34.539Z,1.20
2019-01-05T20:36:22.917Z,1.30
2019-01-05T20:39:07.020Z,1.10
2019-01-05T20:41:54.344Z,1.60
2019-01-05T20:44:41.443Z,1.50
2019-01-05T20:47:33.696Z,1.40
2019-01-05T20:50:20.787Z,1.30
2019-01-05T20:53:15.069Z,1.77
2019-01-05T20:56:02.196Z,1.40
2019-01-05T20:59:05.884Z,1.47
2019-01-05T21:02:00.221Z,1.27
2019-01-05T21:04:48.460Z,1.20
2019-01-05T21:07:53.099Z,1.57
2019-01-05T21:10:40.328Z,0.50
2019-01-05T21:13:40.961Z,1.23
2019-01-05T21:16:28.110Z,1.43
2019-01-05T21:19:18.011Z,1.60
2019-01-05T21:22:05.337Z,1.40
2019-01-05T21:24:52.513Z,1.40
2019-01-05T21:27:43.817Z,0.93
2019-01-05T21:30:38.735Z,1.10
2019-01-05T21:33:38.437Z,1.37
2019-01-05T21:36:30.058Z,0.53
2019-01-05T21:39:18.618Z,0.93
2019-01-05T21:42:16.583Z,1.43
2019-01-05T21:45:16.157Z,1.20
2019-01-05T21:48:03.616Z,0.73
2019-01-05T21:51:07.316Z,0.63
2019-01-05T21:54:11.552Z,1.10
2019-01-05T21:57:06.896Z,0.87
2019-01-05T22:00:18.878Z,0.80
2019-01-05T22:03:14.294Z,1.20
2019-01-05T22:06:10.533Z,1.00
2019-01-05T22:09:04.221Z,1.20
2019-01-05T22:11:53.447Z,1.43
2019-01-05T22:14:53.885Z,1.50
2019-01-05T22:17:46.566Z,1.00
2019-01-05T22:20:56.835Z,1.70
2019-01-05T22:24:00.179Z,1.63
2019-01-05T22:27:01.401Z,1.40
2019-01-05T22:29:51.903Z,0.93
2019-01-05T22:33:00.256Z,1.13
2019-01-05T22:36:02.269Z,1.30
2019-01-05T22:38:51.276Z,0.90
2019-01-05T22:41:55.186Z,1.00
2019-01-05T22:44:46.607Z,1.37
2019-01-05T22:47:37.820Z,2.00
2019-01-05T22:50:25.857Z,1.80
2019-01-05T22:53:29.668Z,1.47
2019-01-05T22:56:30.406Z,1.77
2019-01-05T22:59:17.627Z,0.97
2019-01-05T23:02:01.376Z,1.97
2019-01-05T23:05:04.880Z,1.17
2019-01-05T23:07:51.976Z,1.90
2019-01-05T23:10:49.664Z,1.47
2019-01-05T23:13:43.021Z,1.80
2019-01-05T23:16:41.711Z,3.60
2019-01-05T23:19:29.036Z,2.30
2019-01-05T23:22:20.346Z,1.80
2019-01-05T23:25:12.090Z,1.47
2019-01-05T23:27:59.500Z,1.23
2019-01-05T23:30:53.991Z,1.10
2019-01-05T23:33:48.385Z,1.10
2019-01-05T23:36:39.943Z,1.30
2019-01-05T23:39:37.770Z,0.63
2019-01-05T23:42:26.337Z,1.30
2019-01-05T23:45:26.957Z,1.40
2019-01-05T23:48:27.797Z,0.83
2019-01-05T23:51:16.574Z,1.30
2019-01-05T23:54:03.779Z,1.30
2019-01-05T23:56:52.364Z,0.90
2019-01-05T23:59:40.885Z,1.30
